Flight Track Log - Related Links

Times and Time Zones

All times are in EDT time to prevent confusion due to time zone crossing. See the N511RH flight status page for this flight to view local times or setup timezone preferences in your user account.

Time Position Orientation Groundspeed Altitude Reporting Facility
EDT Latitude Longitude Course Direction KTS MPH feet Rate Location/Type
Tue 05:17:33 PM 39.9944 -82.9033 246° West 154 177 1,200  Level Indianapolis Center
Tue 05:18:04 PM 39.9856 -82.9292 246° West 156 180 2,300 1,973 Climbing Indianapolis Center
Tue 05:18:46 PM 39.9539 -82.9261 176° South 202 232 3,600 1,962 Climbing Indianapolis Center
Tue 05:19:48 PM 39.8958 -82.9064 165° South 210 242 5,700 2,032 Climbing Indianapolis Center
Tue 05:20:50 PM 39.8342 -82.8886 168° South 220 253 7,800 2,081 Climbing Indianapolis Center
Tue 05:21:52 PM 39.7692 -82.8703 168° South 232 267 10,000 1,210 Climbing Indianapolis Center
Tue 05:22:54 PM 39.6883 -82.8567 173° South 281 323 10,300 976 Climbing Indianapolis Center
Tue 05:23:55 PM 39.6047 -82.8489 176° South 299 344 12,000 1,268 Climbing Indianapolis Center
Tue 05:24:57 PM 39.5019 -82.8372 175° South 314 361 12,900 1,403 Climbing Indianapolis Center
Tue 05:25:59 PM 39.4161 -82.8250 174° South 305 351 14,900 1,839 Climbing Indianapolis Center
Tue 05:27:01 PM 39.3369 -82.8050 169° South 288 331 16,700 1,790 Climbing Indianapolis Center
Tue 05:28:03 PM 39.2611 -82.7867 169° South 277 319 18,600 1,597 Climbing Indianapolis Center
Tue 05:29:05 PM 39.1878 -82.7528 160° South 279 321 20,000 1,258 Climbing Indianapolis Center
Tue 05:30:07 PM 39.1153 -82.7056 153° Southeast 286 329 21,200 1,016 Climbing Indianapolis Center
Tue 05:31:09 PM 39.0400 -82.6611 155° Southeast 295 339 22,100 919 Climbing Indianapolis Center
Tue 05:32:11 PM 38.9642 -82.6142 154° Southeast 301 346 23,100 912 Climbing Indianapolis Center
Tue 05:33:14 PM 38.8714 -82.5564 154° Southeast 308 354 24,000 672 Climbing Indianapolis Center
Tue 05:34:16 PM 38.7944 -82.5094 155° Southeast 309 356 24,500 484 Climbing Indianapolis Center
Tue 05:35:18 PM 38.7150 -82.4603 154° Southeast 316 364 25,000 242 Climbing Indianapolis Center
Tue 05:36:20 PM 38.6314 -82.4103 155° Southeast 330 380 25,000  Level Indianapolis Center
Tue 05:37:22 PM 38.5428 -82.3550 154° Southeast 352 405 25,000 -48 Level Indianapolis Center
Tue 05:38:24 PM 38.4536 -82.3014 155° Southeast 356 410 24,900 -435 Descending Indianapolis Center
Tue 05:39:26 PM 38.3414 -82.2339 155° Southeast 372 428 24,100 -435 Descending Indianapolis Center
Tue 05:40:28 PM 38.2494 -82.1778 154° Southeast 369 425 24,000 -48 Descending Indianapolis Center
Tue 05:41:30 PM 38.1619 -82.1269 155° Southeast 350 403 24,000  Level Indianapolis Center
Tue 05:42:32 PM 38.0725 -82.0722 154° Southeast 354 407 24,000  Level Indianapolis Center
Tue 05:43:34 PM 37.9806 -82.0169 155° Southeast 363 418 24,000  Level Indianapolis Center
Tue 05:44:36 PM 37.8700 -81.9506 155° Southeast 367 422 24,000  Level Indianapolis Center
Tue 05:45:38 PM 37.7814 -81.8986 155° Southeast 368 423 24,000  Level Indianapolis Center
Tue 05:46:40 PM 37.6878 -81.8433 155° Southeast 369 425 24,000 -48 Level Indianapolis Center
Tue 05:47:42 PM 37.5950 -81.7872 154° Southeast 368 423 23,900 -290 Descending Indianapolis Center
Tue 05:48:44 PM 37.4825 -81.7203 155° Southeast 376 433 23,400 -435 Descending Indianapolis Center
Tue 05:49:46 PM 37.3847 -81.6642 155° Southeast 382 440 23,000 -194 Descending Indianapolis Center
Tue 05:50:48 PM 37.2886 -81.6064 154° Southeast 380 437 23,000  Level Indianapolis Center
Tue 05:51:50 PM 37.1936 -81.5514 155° Southeast 376 433 23,000  Level Indianapolis Center
Tue 05:52:52 PM 37.0994 -81.4969 155° Southeast 372 428 23,000 -97 Level Indianapolis Center
Tue 05:53:54 PM 37.0031 -81.4406 155° Southeast 370 426 22,800 -339 Descending Indianapolis Center
Tue 05:54:56 PM 36.9094 -81.3867 155° Southeast 377 434 22,300 -556 Descending Indianapolis Center
Tue 05:55:42 PM 36.8253 -81.3419 157° South 382 440 21,800 -849 Descending Atlanta Center
Tue 05:56:42 PM 36.7194 -81.2756 153° Southeast 382 440 20,800 -1,000 Descending Atlanta Center
Tue 05:57:42 PM 36.6181 -81.2169 155° Southeast 388 447 19,800 -1,000 Descending Atlanta Center
Tue 05:58:42 PM 36.5208 -81.1608 155° Southeast 388 447 18,800 -1,050 Descending Atlanta Center
Tue 05:59:42 PM 36.4258 -81.1103 157° South 382 440 17,700 -1,000 Descending Atlanta Center
Tue 06:00:42 PM 36.3433 -81.0592 153° Southeast 376 433 16,800 -1,100 Descending Atlanta Center
Tue 06:01:42 PM 36.2503 -81.0083 156° South 369 425 15,500 -1,550 Descending Atlanta Center
Tue 06:02:42 PM 36.1614 -80.9578 155° Southeast 359 413 13,700 -1,900 Descending Atlanta Center
Tue 06:03:42 PM 36.0831 -80.9144 156° South 328 377 11,700 -2,000 Descending Atlanta Center
Tue 06:04:42 PM 36.0050 -80.8714 156° South 315 362 9,700 -2,129 Descending Atlanta Center
Tue 06:05:15 PM 35.9539 -80.8400 154° Southeast 303 349 8,400 -2,170 Descending Atlanta Center
Tue 06:06:16 PM 35.8781 -80.8019 158° South 291 335 6,300 -1,594 Descending Atlanta Center
Tue 06:07:23 PM 35.8081 -80.7586 153° Southeast 266 306 5,000 -984 Descending Atlanta Center
Tue 06:08:18 PM 35.7386 -80.7411 168° South 306 352 4,300 -776 Descending Atlanta Center
Tue 06:09:19 PM 35.6714 -80.7283 171° South 261 300 3,500 -639 Descending Atlanta Center
Tue 06:10:20 PM 35.5981 -80.7158 172° South 237 273 3,000 -234 Descending Atlanta Center
Tue 06:11:27 PM 35.5353 -80.7006 169° South 215 247 3,000 -254 Level Atlanta Center
Tue 06:12:42 PM 35.4744 -80.6903 172° South 203 234 2,400 -678 Descending Atlanta Center
Tue 06:13:22 PM 35.4433 -80.6992 193° South 151 174 1,700 -713 Descending Atlanta Center
Tue 06:14:23 PM 35.4081 -80.7058 189° South 138 159 1,200 -492 Descending Atlanta Center

Login

Don't have an account? Register now (free) for customized features, flight alerts, and more!